Time;durP1;ratioP1;P1;durP2;ratioP2;P2;SDS_P1;SDS_P2;PMS_P1;PMS_P2;Temp;Humidity;BMP_temperature;BMP_pressure;BME280_temperature;BME280_humidity;BME280_pressure;Samples;Min_cycle;Max_cycle;Signal;HPM_P1;HPM_P2
2022/02/15 00:01:13;;;;;;;9.10;1.63;;;;;;;6.73;100.00;100520.00;5070210;28;20421;-31
2022/02/15 00:03:41;;;;;;;9.90;1.63;;;;;;;6.74;100.00;100531.94;5071328;28;20040;-30
2022/02/15 00:06:09;;;;;;;15.25;1.75;;;;;;;6.75;100.00;100533.59;5070139;28;20493;-30
2022/02/15 00:08:38;;;;;;;12.32;2.03;;;;;;;6.76;100.00;100533.31;5070577;28;20036;-33
2022/02/15 00:11:05;;;;;;;14.77;1.92;;;;;;;6.79;100.00;100534.69;5071118;28;20052;-30
2022/02/15 00:13:33;;;;;;;6.55;1.60;;;;;;;6.79;100.00;100529.97;5070189;28;20040;-31
2022/02/15 00:16:01;;;;;;;12.02;1.77;;;;;;;6.79;100.00;100535.53;5070192;28;20036;-30
2022/02/15 00:18:29;;;;;;;12.45;2.33;;;;;;;6.78;100.00;100531.09;5069536;28;20040;-32
2022/02/15 00:20:56;;;;;;;14.95;3.10;;;;;;;6.79;100.00;100534.69;5070791;28;20518;-30
2022/02/15 00:23:24;;;;;;;10.40;2.72;;;;;;;6.79;100.00;100532.75;5070630;28;20055;-31
2022/02/15 00:25:53;;;;;;;12.20;2.20;;;;;;;6.80;100.00;100533.56;5069946;28;20051;-32
2022/02/15 00:28:21;;;;;;;12.27;2.70;;;;;;;6.79;100.00;100534.69;5071110;28;20090;-32
2022/02/15 00:30:50;;;;;;;11.93;2.15;;;;;;;6.79;100.00;100538.31;5069538;28;20517;-32
2022/02/15 00:33:18;;;;;;;11.88;2.10;;;;;;;6.81;100.00;100532.44;5068251;28;20171;-32
2022/02/15 00:35:46;;;;;;;10.93;2.42;;;;;;;6.80;100.00;100537.16;5070536;28;20076;-30
2022/02/15 00:38:14;;;;;;;13.50;2.70;;;;;;;6.82;100.00;100539.66;5070939;28;20051;-31
2022/02/15 00:40:42;;;;;;;10.45;2.42;;;;;;;6.81;100.00;100538.00;5070144;28;20052;-31
2022/02/15 00:43:11;;;;;;;13.90;3.20;;;;;;;6.81;100.00;100552.69;5070997;28;20082;-31
2022/02/15 00:45:39;;;;;;;11.32;3.10;;;;;;;6.81;100.00;100546.31;5070745;28;20048;-30
2022/02/15 00:48:07;;;;;;;12.63;2.67;;;;;;;6.82;100.00;100556.28;5068385;28;20044;-30
2022/02/15 00:50:35;;;;;;;14.20;2.50;;;;;;;6.84;100.00;100557.66;5069592;28;20052;-32
2022/02/15 00:53:02;;;;;;;12.77;3.20;;;;;;;6.82;100.00;100551.56;5070593;28;20486;-31
2022/02/15 00:55:30;;;;;;;13.00;3.22;;;;;;;6.83;100.00;100566.28;5070124;28;20074;-31
2022/02/15 00:57:58;;;;;;;12.30;3.20;;;;;;;6.81;100.00;100561.00;5069458;28;20044;-31
2022/02/15 01:00:27;;;;;;;13.48;3.80;;;;;;;6.82;100.00;100559.88;5068567;28;20114;-33
2022/02/15 01:02:55;;;;;;;16.38;3.75;;;;;;;6.81;100.00;100560.16;5070597;28;20131;-31
2022/02/15 01:05:23;;;;;;;15.70;3.53;;;;;;;6.82;100.00;100567.38;5070571;28;20044;-31
2022/02/15 01:07:50;;;;;;;17.95;3.55;;;;;;;6.84;100.00;100565.16;5069692;28;20044;-30
2022/02/15 01:10:20;;;;;;;13.00;3.30;;;;;;;6.83;100.00;100578.19;5070558;28;20048;-31
2022/02/15 01:12:49;;;;;;;13.07;3.40;;;;;;;6.82;100.00;100571.00;5058269;28;20056;-29
2022/02/15 01:15:17;;;;;;;12.55;3.30;;;;;;;6.82;100.00;100584.84;5069309;28;20048;-31
2022/02/15 01:17:47;;;;;;;17.70;4.10;;;;;;;6.82;100.00;100582.06;5069654;28;20068;-32
2022/02/15 01:20:15;;;;;;;15.82;3.38;;;;;;;6.82;100.00;100590.41;5070338;28;20140;-32
2022/02/15 01:22:43;;;;;;;15.52;3.17;;;;;;;6.82;100.00;100592.34;5068537;28;20064;-33
2022/02/15 01:25:11;;;;;;;14.82;3.40;;;;;;;6.81;100.00;100593.44;5070541;28;20049;-31
2022/02/15 01:27:39;;;;;;;12.75;3.13;;;;;;;6.81;100.00;100597.06;5070260;28;20055;-31
2022/02/15 01:30:08;;;;;;;14.23;3.42;;;;;;;6.81;100.00;100594.28;5070505;28;20066;-31
2022/02/15 01:32:36;;;;;;;14.63;2.83;;;;;;;6.82;100.00;100607.03;5072071;28;20482;-30
2022/02/15 01:35:05;;;;;;;13.40;3.47;;;;;;;6.82;100.00;100598.72;5073157;28;20139;-31
2022/02/15 01:37:33;;;;;;;11.20;2.30;;;;;;;6.83;100.00;100602.31;5071824;28;20186;-30
2022/02/15 01:40:01;;;;;;;14.35;2.78;;;;;;;6.81;100.00;100604.53;5063190;28;20052;-30
2022/02/15 01:42:29;;;;;;;17.30;3.38;;;;;;;6.81;100.00;100607.31;5072429;28;20064;-29
2022/02/15 01:44:56;;;;;;;16.02;2.92;;;;;;;6.80;100.00;100602.88;5071471;28;20193;-31
2022/02/15 01:47:26;;;;;;;9.70;2.85;;;;;;;6.77;100.00;100609.00;5072788;28;20063;-31
2022/02/15 01:49:56;;;;;;;15.02;2.30;;;;;;;6.74;100.00;100609.56;5071147;28;20048;-30
2022/02/15 01:52:26;;;;;;;10.27;2.00;;;;;;;6.72;100.00;100620.09;5072109;28;20041;-30
2022/02/15 01:54:55;;;;;;;13.50;2.30;;;;;;;6.72;100.00;100618.16;5073821;28;20048;-34
2022/02/15 01:57:24;;;;;;;12.50;2.53;;;;;;;6.73;100.00;100621.78;5071314;28;20117;-31
2022/02/15 01:59:59;;;;;;;14.30;3.13;;;;;;;6.74;100.00;100623.44;5071977;28;20435;-30
2022/02/15 02:02:41;;;;;;;13.90;2.67;;;;;;;6.74;100.00;100628.97;5073495;28;20072;-30
2022/02/15 02:08:02;;;;;;;16.08;2.50;;;;;;;6.75;100.00;100620.38;5071979;28;20139;-31
2022/02/15 02:10:34;;;;;;;10.90;2.10;;;;;;;6.75;100.00;100623.16;5072225;28;20127;-30
2022/02/15 02:13:05;;;;;;;11.95;2.20;;;;;;;6.76;100.00;100622.03;5071522;28;20417;-32
2022/02/15 02:15:32;;;;;;;16.85;2.20;;;;;;;6.77;100.00;100614.56;5072131;28;20093;-30
2022/02/15 02:18:39;;;;;;;15.45;2.40;;;;;;;6.74;100.00;100618.72;5067421;28;20451;-31
2022/02/15 02:21:10;;;;;;;9.02;1.85;;;;;;;6.75;100.00;100622.31;5071431;28;20477;-30
2022/02/15 02:23:37;;;;;;;19.08;2.78;;;;;;;6.75;100.00;100622.31;5071970;28;20241;-31
2022/02/15 02:26:13;;;;;;;15.55;3.03;;;;;;;6.72;100.00;100623.72;5071219;28;20456;-29
2022/02/15 02:28:42;;;;;;;9.45;3.42;;;;;;;6.72;100.00;100628.44;5071594;28;20478;-30
2022/02/15 02:31:11;;;;;;;13.30;3.55;;;;;;;6.71;100.00;100635.09;5071249;28;20123;-31
2022/02/15 02:33:48;;;;;;;13.38;3.47;;;;;;;6.69;100.00;100635.34;5071187;28;20064;-30
2022/02/15 02:36:17;;;;;;;10.60;3.28;;;;;;;6.68;100.00;100630.09;5071239;28;20123;-30
2022/02/15 02:38:45;;;;;;;11.07;3.05;;;;;;;6.65;100.00;100630.63;5070967;28;20052;-31
2022/02/15 02:41:13;;;;;;;12.32;3.55;;;;;;;6.61;100.00;100630.34;5071338;28;20033;-30
2022/02/15 02:43:41;;;;;;;11.13;3.30;;;;;;;6.57;100.00;100629.28;5071304;28;20554;-31
2022/02/15 02:46:09;;;;;;;14.95;3.30;;;;;;;6.53;100.00;100631.78;5070552;28;20064;-30
2022/02/15 02:48:37;;;;;;;17.50;3.40;;;;;;;6.51;100.00;100635.94;5072658;28;20044;-30
2022/02/15 02:51:05;;;;;;;17.23;3.88;;;;;;;6.47;100.00;100643.97;5060336;28;20464;-29
2022/02/15 02:53:34;;;;;;;12.73;3.75;;;;;;;6.44;100.00;100638.13;5070964;28;20036;-29
2022/02/15 02:56:02;;;;;;;10.25;3.05;;;;;;;6.43;100.00;100637.31;5070323;28;20059;-30
2022/02/15 02:58:32;;;;;;;15.52;3.53;;;;;;;6.42;100.00;100646.72;5071166;28;20048;-30
2022/02/15 03:01:00;;;;;;;15.50;3.55;;;;;;;6.43;100.00;100651.16;5068315;28;20057;-30
2022/02/15 03:03:34;;;;;;;10.95;3.10;;;;;;;6.43;100.00;100648.38;5070874;28;20049;-30
2022/02/15 03:06:06;;;;;;;14.52;3.10;;;;;;;6.45;100.00;100654.50;5070217;28;20109;-30
2022/02/15 03:08:35;;;;;;;14.27;3.20;;;;;;;6.44;100.00;100654.75;5071810;28;20049;-30
2022/02/15 03:11:04;;;;;;;14.70;3.25;;;;;;;6.45;100.00;100662.81;5070232;28;20044;-29
2022/02/15 03:13:38;;;;;;;9.00;2.40;;;;;;;6.45;100.00;100660.03;5070656;28;20098;-30
2022/02/15 03:16:12;;;;;;;13.55;2.88;;;;;;;6.44;100.00;100666.69;5070203;28;20163;-30
2022/02/15 03:18:42;;;;;;;12.48;2.90;;;;;;;6.43;100.00;100670.56;5070497;28;20054;-30
2022/02/15 03:21:12;;;;;;;13.18;2.95;;;;;;;6.42;100.00;100674.44;5070141;28;20056;-30
2022/02/15 03:23:41;;;;;;;15.55;2.70;;;;;;;6.42;100.00;100674.44;5072128;28;20044;-31
2022/02/15 03:26:12;;;;;;;13.70;2.80;;;;;;;6.40;100.00;100673.88;5070094;28;20099;-30
2022/02/15 03:28:42;;;;;;;10.70;2.28;;;;;;;6.39;100.00;100674.19;5061046;28;20127;-30
2022/02/15 03:31:10;;;;;;;15.88;3.25;;;;;;;6.36;100.00;100680.28;5070146;28;20611;-30
2022/02/15 03:33:38;;;;;;;12.93;2.70;;;;;;;6.35;100.00;100684.16;5070546;28;20056;-31
2022/02/15 03:36:06;;;;;;;12.13;2.67;;;;;;;6.32;100.00;100690.25;5071219;28;20048;-31
2022/02/15 03:38:37;;;;;;;13.90;2.58;;;;;;;6.28;100.00;100689.94;5069780;28;20681;-31
2022/02/15 03:44:05;;;;;;;14.45;2.65;;;;;;;6.23;100.00;100706.56;5069790;28;20045;-30
2022/02/15 03:46:35;;;;;;;15.93;2.72;;;;;;;6.25;100.00;100703.53;5070534;28;20048;-30
2022/02/15 03:49:03;;;;;;;10.40;2.30;;;;;;;6.26;100.00;100703.25;5069814;28;20036;-31
2022/02/15 03:51:31;;;;;;;10.13;2.60;;;;;;;6.26;100.00;100702.41;5069765;28;20036;-32
2022/02/15 03:53:59;;;;;;;10.57;2.00;;;;;;;6.27;100.00;100707.69;5069826;28;20055;-30
2022/02/15 03:56:28;;;;;;;13.65;2.83;;;;;;;6.27;100.00;100710.44;5068734;28;20465;-32
2022/02/15 03:58:57;;;;;;;8.85;2.25;;;;;;;6.29;100.00;100715.72;5069868;28;20488;-30
2022/02/15 04:01:26;;;;;;;12.20;2.40;;;;;;;6.30;100.00;100720.16;5060564;28;20485;-30
2022/02/15 04:03:55;;;;;;;9.52;1.92;;;;;;;6.31;100.00;100717.13;5069200;28;20082;-29
2022/02/15 04:06:22;;;;;;;10.52;2.00;;;;;;;6.33;100.00;100720.44;5070861;28;20040;-29
2022/02/15 04:08:50;;;;;;;14.18;2.80;;;;;;;6.35;100.00;100725.72;5070113;28;20139;-30
2022/02/15 04:11:18;;;;;;;14.88;2.53;;;;;;;6.35;100.00;100732.09;5066713;28;20055;-32
2022/02/15 04:13:47;;;;;;;13.52;2.92;;;;;;;6.36;100.00;100735.69;5069670;28;20547;-30
2022/02/15 04:16:15;;;;;;;13.88;2.65;;;;;;;6.36;100.00;100736.53;5069523;28;20036;-31
2022/02/15 04:18:47;;;;;;;11.93;2.10;;;;;;;6.37;100.00;100751.22;5069141;28;20420;-33
2022/02/15 04:21:20;;;;;;;10.55;2.08;;;;;;;6.36;100.00;100755.94;5069314;28;20183;-31
2022/02/15 04:23:48;;;;;;;14.93;2.10;;;;;;;6.35;100.00;100751.50;5067189;28;20051;-31
2022/02/15 04:26:16;;;;;;;11.60;1.95;;;;;;;6.36;100.00;100752.31;5068509;28;20055;-31
2022/02/15 04:28:46;;;;;;;15.30;2.50;;;;;;;6.34;100.00;100755.38;5069630;28;20040;-31
2022/02/15 04:31:29;;;;;;;13.68;2.38;;;;;;;6.34;100.00;100760.91;5068027;28;20457;-31
2022/02/15 04:33:57;;;;;;;16.90;2.67;;;;;;;6.34;100.00;100763.69;5068873;28;20478;-30
2022/02/15 04:36:25;;;;;;;14.55;2.75;;;;;;;6.34;100.00;100766.47;5069137;28;20052;-30
2022/02/15 04:38:56;;;;;;;14.90;2.22;;;;;;;6.34;100.00;100766.47;5069293;28;20053;-30
2022/02/15 04:41:25;;;;;;;14.98;2.40;;;;;;;6.35;100.00;100770.91;5069398;28;20517;-30
2022/02/15 04:43:57;;;;;;;19.73;2.70;;;;;;;6.37;100.00;100770.63;5069328;28;20106;-31
2022/02/15 04:46:27;;;;;;;13.52;2.70;;;;;;;6.38;100.00;100772.28;5068882;28;20048;-30
2022/02/15 04:48:57;;;;;;;12.25;2.10;;;;;;;6.38;100.00;100772.28;5069113;28;20048;-29
2022/02/15 04:51:24;;;;;;;10.27;2.15;;;;;;;6.40;100.00;100773.66;5069288;28;20102;-29
2022/02/15 04:53:53;;;;;;;13.68;2.53;;;;;;;6.41;100.00;100791.94;5066453;28;20049;-30
2022/02/15 04:56:21;;;;;;;15.75;2.22;;;;;;;6.44;100.00;100796.13;5068235;28;20041;-30
2022/02/15 04:58:49;;;;;;;14.02;2.55;;;;;;;6.45;100.00;100790.31;5068368;28;20094;-31
2022/02/15 05:01:19;;;;;;;15.50;2.40;;;;;;;6.46;100.00;100797.50;5067706;28;20155;-30
2022/02/15 05:03:54;;;;;;;13.15;2.10;;;;;;;6.46;100.00;100800.28;5071318;28;20083;-30
2022/02/15 05:06:22;;;;;;;15.38;2.75;;;;;;;6.48;100.00;100806.38;5074970;28;20053;-30
2022/02/15 05:08:51;;;;;;;12.85;2.03;;;;;;;6.49;100.00;100805.28;5072268;28;20091;-30
2022/02/15 05:11:19;;;;;;;18.10;2.53;;;;;;;6.50;100.00;100801.41;5073206;28;20064;-30
2022/02/15 05:13:54;;;;;;;13.10;2.20;;;;;;;6.50;100.00;100798.63;5062320;28;20056;-30
2022/02/15 05:16:28;;;;;;;18.85;2.83;;;;;;;6.52;100.00;100810.28;5073550;28;20045;-30
2022/02/15 05:19:12;;;;;;;15.32;2.53;;;;;;;6.53;100.00;100808.34;5072977;28;20092;-30
2022/02/15 05:21:40;;;;;;;17.05;2.20;;;;;;;6.54;100.00;100802.53;5072432;28;20127;-30
2022/02/15 05:24:08;;;;;;;12.25;2.50;;;;;;;6.55;100.00;100809.75;5073115;28;20411;-31
2022/02/15 05:26:46;;;;;;;8.60;1.80;;;;;;;6.55;100.00;100808.91;5073144;28;20052;-30
2022/02/15 05:29:27;;;;;;;17.48;2.33;;;;;;;6.57;100.00;100815.03;5061737;28;20060;-31
2022/02/15 05:32:06;;;;;;;14.02;1.92;;;;;;;6.59;100.00;100809.22;5073057;28;20500;-29
2022/02/15 05:34:34;;;;;;;9.63;1.98;;;;;;;6.59;100.00;100821.13;5062371;28;20037;-29
2022/02/15 05:37:01;;;;;;;14.68;2.20;;;;;;;6.59;100.00;100825.84;5073346;28;20067;-32
2022/02/15 05:39:29;;;;;;;12.07;2.00;;;;;;;6.59;100.00;100818.34;5072671;28;20106;-30
2022/02/15 05:42:04;;;;;;;9.60;1.60;;;;;;;6.61;100.00;100826.38;5071823;28;20058;-30
2022/02/15 05:44:32;;;;;;;19.63;2.53;;;;;;;6.60;100.00;100814.44;5072714;28;20106;-31
2022/02/15 05:47:06;;;;;;;11.32;2.08;;;;;;;6.61;100.00;100823.59;5072955;28;20060;-31
2022/02/15 05:50:49;;;;;;;13.40;2.33;;;;;;;6.61;100.00;100806.97;5068140;28;20558;-30
2022/02/15 05:52:33;;;;;;;15.40;2.33;;;;;;;6.61;100.00;100809.72;5064940;28;20051;-31
2022/02/15 05:55:03;;;;;;;12.68;2.33;;;;;;;6.60;100.00;100813.63;5072536;28;20117;-30
2022/02/15 05:57:31;;;;;;;15.70;2.35;;;;;;;6.62;100.00;100822.50;5071748;28;20485;-30
2022/02/15 06:00:08;;;;;;;14.23;2.00;;;;;;;6.61;100.00;100823.59;5072343;28;20072;-32
2022/02/15 06:02:54;;;;;;;13.25;1.90;;;;;;;6.60;100.00;100817.22;5071695;28;20562;-31
2022/02/15 06:05:34;;;;;;;19.20;2.25;;;;;;;6.60;100.00;100819.16;5072511;28;20051;-32
2022/02/15 06:08:03;;;;;;;16.40;2.25;;;;;;;6.59;100.00;100817.53;5072341;28;20131;-31
2022/02/15 06:10:35;;;;;;;10.18;1.73;;;;;;;6.59;100.00;100812.81;5071275;28;20051;-31
2022/02/15 06:13:26;;;;;;;15.32;2.40;;;;;;;6.57;100.00;100813.09;5072003;28;20036;-33
2022/02/15 06:15:55;;;;;;;12.98;2.20;;;;;;;6.57;100.00;100806.69;5060465;28;20072;-31
2022/02/15 06:18:31;;;;;;;11.32;2.63;;;;;;;6.57;100.00;100810.31;5071336;28;20067;-31
2022/02/15 06:21:03;;;;;;;13.38;2.30;;;;;;;6.57;100.00;100815.84;5071889;28;20147;-31
2022/02/15 06:23:31;;;;;;;13.30;2.05;;;;;;;6.57;100.00;100807.53;5070562;28;20044;-30
2022/02/15 06:26:07;;;;;;;21.02;2.50;;;;;;;6.58;100.00;100816.69;5069384;28;20048;-31
2022/02/15 06:29:04;;;;;;;14.85;2.67;;;;;;;6.56;100.00;100827.22;5067577;28;20427;-31
2022/02/15 06:31:37;;;;;;;13.45;2.20;;;;;;;6.54;100.00;100821.94;5070903;28;20401;-31
2022/02/15 06:34:06;;;;;;;14.18;2.60;;;;;;;6.53;100.00;100820.28;5073049;28;20058;-31
2022/02/15 06:36:35;;;;;;;16.42;2.58;;;;;;;6.52;100.00;100826.91;5060289;28;20564;-30
2022/02/15 06:39:04;;;;;;;15.75;2.70;;;;;;;6.52;100.00;100832.47;5068955;28;20676;-30
2022/02/15 06:41:33;;;;;;;19.17;2.60;;;;;;;6.51;100.00;100829.97;5070182;28;20397;-30
2022/02/15 06:44:10;;;;;;;14.82;1.92;;;;;;;6.51;100.00;100832.75;5069671;28;20106;-30
2022/02/15 06:46:45;;;;;;;14.00;2.15;;;;;;;6.49;100.00;100830.22;5069780;28;20071;-31
2022/02/15 06:49:24;;;;;;;12.40;2.30;;;;;;;6.48;100.00;100822.19;5070864;28;20489;-31
2022/02/15 06:52:09;;;;;;;10.75;1.98;;;;;;;6.48;100.00;100828.56;5060871;28;20048;-30
2022/02/15 06:54:39;;;;;;;12.60;2.30;;;;;;;6.47;100.00;100840.75;5069807;28;20049;-30
2022/02/15 06:57:09;;;;;;;11.15;1.83;;;;;;;6.45;100.00;100837.41;5069695;28;20063;-29
2022/02/15 06:59:37;;;;;;;10.32;2.10;;;;;;;6.42;100.00;100842.66;5067957;28;20066;-29
2022/02/15 07:02:07;;;;;;;12.52;2.10;;;;;;;6.38;100.00;100845.19;5068358;28;20044;-31
2022/02/15 07:04:39;;;;;;;13.50;2.33;;;;;;;6.37;100.00;100851.81;5068878;28;20122;-31
2022/02/15 07:07:07;;;;;;;15.18;2.67;;;;;;;6.37;100.00;100854.59;5067669;28;20331;-30
2022/02/15 07:09:36;;;;;;;19.08;2.58;;;;;;;6.38;100.00;100858.22;5068380;28;20059;-30
2022/02/15 07:12:10;;;;;;;16.58;3.13;;;;;;;6.39;100.00;100860.72;5069735;28;20045;-32
2022/02/15 07:14:51;;;;;;;13.60;2.03;;;;;;;6.40;100.00;100856.81;5058436;28;20049;-30
2022/02/15 07:17:26;;;;;;;8.43;1.90;;;;;;;6.39;100.00;100866.25;5067721;28;20135;-30
2022/02/15 07:19:56;;;;;;;12.98;2.13;;;;;;;6.42;100.00;100875.94;5069884;28;20114;-29
2022/02/15 07:22:48;;;;;;;13.48;2.33;;;;;;;6.40;100.00;100869.81;5066786;28;20060;-30
2022/02/15 07:25:28;;;;;;;14.98;2.35;;;;;;;6.39;100.00;100880.09;5069013;28;20143;-30
2022/02/15 07:28:18;;;;;;;10.20;1.92;;;;;;;6.41;100.00;100888.13;5057548;28;20494;-30
2022/02/15 07:30:48;;;;;;;18.00;2.60;;;;;;;6.41;100.00;100897.28;5069002;28;20052;-30
2022/02/15 07:33:20;;;;;;;12.00;2.13;;;;;;;6.44;100.00;100888.41;5068862;28;20554;-34
2022/02/15 07:35:50;;;;;;;14.85;2.92;;;;;;;6.44;100.00;100902.28;5068599;28;20052;-30
2022/02/15 07:38:18;;;;;;;10.45;2.13;;;;;;;6.46;100.00;100904.78;5070312;28;20135;-30
2022/02/15 07:40:45;;;;;;;15.00;2.20;;;;;;;6.46;100.00;100902.84;5070514;28;20041;-30
2022/02/15 07:43:13;;;;;;;11.43;2.03;;;;;;;6.49;100.00;100898.69;5068410;28;20580;-30
2022/02/15 07:45:44;;;;;;;15.32;2.50;;;;;;;6.51;100.00;100902.88;5070745;28;20450;-33
2022/02/15 07:48:12;;;;;;;14.65;2.08;;;;;;;6.51;100.00;100900.09;5070161;28;20049;-32
2022/02/15 07:50:41;;;;;;;10.00;2.25;;;;;;;6.50;100.00;100914.22;5069665;28;20440;-30
2022/02/15 07:53:10;;;;;;;13.50;2.85;;;;;;;6.47;100.00;100912.81;5070235;28;20405;-31
2022/02/15 07:55:38;;;;;;;9.75;2.10;;;;;;;6.47;100.00;100914.78;5068158;28;20052;-29
2022/02/15 07:58:06;;;;;;;11.80;2.13;;;;;;;6.44;100.00;100916.13;5069944;28;20297;-30
2022/02/15 08:00:35;;;;;;;9.25;2.50;;;;;;;6.43;100.00;100908.94;5070048;28;20048;-30
2022/02/15 08:03:04;;;;;;;14.13;2.67;;;;;;;6.38;100.00;100910.88;5069837;28;20058;-30
2022/02/15 08:05:32;;;;;;;8.38;2.10;;;;;;;6.38;100.00;100906.16;5070731;28;20044;-30
2022/02/15 08:08:06;;;;;;;11.27;2.13;;;;;;;6.41;100.00;100908.34;5069814;28;20059;-31
2022/02/15 08:10:35;;;;;;;13.43;2.55;;;;;;;6.44;100.00;100912.53;5070440;28;20055;-30
2022/02/15 08:13:05;;;;;;;10.77;2.28;;;;;;;6.45;100.00;100922.50;5071017;28;20041;-32
2022/02/15 08:15:36;;;;;;;14.25;2.80;;;;;;;6.46;100.00;100916.72;5070728;28;20055;-30
2022/02/15 08:18:05;;;;;;;12.65;2.78;;;;;;;6.47;100.00;100915.59;5070130;28;20048;-30
2022/02/15 08:20:33;;;;;;;14.80;2.65;;;;;;;6.48;100.00;100910.91;5070833;28;20051;-35
2022/02/15 08:23:01;;;;;;;11.00;2.15;;;;;;;6.51;100.00;100915.91;5071017;28;20041;-30
2022/02/15 08:25:29;;;;;;;10.80;2.15;;;;;;;6.53;100.00;100916.47;5070138;28;20040;-31
2022/02/15 08:27:58;;;;;;;8.13;2.08;;;;;;;6.50;100.00;100909.53;5071038;28;20059;-31
2022/02/15 08:30:27;;;;;;;10.55;1.75;;;;;;;6.52;100.00;100918.41;5070917;28;20053;-30
2022/02/15 08:32:55;;;;;;;13.10;2.25;;;;;;;6.54;100.00;100910.66;5069928;28;20431;-31
2022/02/15 08:35:23;;;;;;;15.30;2.13;;;;;;;6.59;100.00;100912.63;5071106;28;20425;-30
2022/02/15 08:37:51;;;;;;;11.50;2.13;;;;;;;6.57;100.00;100912.88;5069751;28;20175;-31
2022/02/15 08:40:21;;;;;;;12.32;2.63;;;;;;;6.59;100.00;100907.06;5070490;28;20103;-30
2022/02/15 08:42:49;;;;;;;10.55;1.92;;;;;;;6.59;100.00;100907.06;5059918;28;20048;-30
2022/02/15 08:45:18;;;;;;;11.95;1.85;;;;;;;6.63;100.00;100907.34;5068085;28;20040;-30
2022/02/15 08:47:46;;;;;;;15.32;2.42;;;;;;;6.62;100.00;100905.66;5070791;28;20508;-30
2022/02/15 08:50:15;;;;;;;12.35;2.17;;;;;;;6.61;100.00;100906.78;5070326;28;20152;-28
2022/02/15 08:52:45;;;;;;;10.13;2.10;;;;;;;6.62;100.00;100900.13;5070234;28;20052;-33
2022/02/15 08:55:13;;;;;;;17.55;2.22;;;;;;;6.66;100.00;100904.03;5070309;28;20056;-30
2022/02/15 08:57:41;;;;;;;14.07;2.30;;;;;;;6.77;100.00;100902.97;5069506;28;20155;-34
2022/02/15 09:00:14;;;;;;;8.10;2.00;;;;;;;6.94;100.00;100903.56;5069695;28;20041;-31
2022/02/15 09:02:43;;;;;;;18.63;2.60;;;;;;;7.18;100.00;100907.50;5070460;28;20139;-30
2022/02/15 09:05:10;;;;;;;12.82;2.20;;;;;;;7.45;100.00;100912.78;5070897;28;20040;-31
2022/02/15 09:07:38;;;;;;;14.15;2.42;;;;;;;7.65;100.00;100900.81;5069585;28;20048;-32
2022/02/15 09:10:07;;;;;;;12.52;2.45;;;;;;;7.74;100.00;100913.06;5070537;28;20052;-31
2022/02/15 09:12:34;;;;;;;13.18;2.67;;;;;;;7.74;100.00;100912.22;5070719;28;20139;-31
2022/02/15 09:15:03;;;;;;;17.17;2.70;;;;;;;7.59;100.00;100915.84;5069404;28;20044;-33
2022/02/15 09:17:36;;;;;;;10.05;2.22;;;;;;;7.52;100.00;100909.72;5070736;28;20041;-32
2022/02/15 09:20:07;;;;;;;13.23;2.58;;;;;;;7.65;100.00;100900.00;5069528;28;20044;-30
2022/02/15 09:22:35;;;;;;;10.82;2.40;;;;;;;7.87;100.00;100906.09;5070093;28;20103;-31
2022/02/15 09:25:03;;;;;;;13.48;2.42;;;;;;;7.88;100.00;100919.69;5068420;28;20076;-33
2022/02/15 09:27:31;;;;;;;11.70;2.30;;;;;;;7.89;100.00;100915.81;5067359;28;20055;-30
2022/02/15 09:29:58;;;;;;;17.25;2.63;;;;;;;8.11;100.00;100914.66;5068715;28;20170;-30
2022/02/15 09:32:26;;;;;;;12.05;1.83;;;;;;;8.31;100.00;100906.25;5070043;28;20080;-30
2022/02/15 09:34:56;;;;;;;13.63;2.30;;;;;;;8.40;100.00;100914.88;5069476;28;20040;-32
2022/02/15 09:37:25;;;;;;;14.80;2.03;;;;;;;8.51;100.00;100914.56;5070202;28;20404;-33
2022/02/15 09:39:55;;;;;;;13.90;2.00;;;;;;;8.62;100.00;100907.81;5070676;28;20049;-30
2022/02/15 09:42:23;;;;;;;11.25;1.85;;;;;;;8.64;100.00;100907.53;5066448;28;20101;-30
2022/02/15 09:44:51;;;;;;;15.73;2.13;;;;;;;8.80;100.00;100905.50;5059404;28;20044;-31
2022/02/15 09:47:24;;;;;;;11.23;1.90;;;;;;;9.07;100.00;100899.50;5069924;28;20037;-32
2022/02/15 09:49:53;;;;;;;12.35;1.80;;;;;;;9.21;100.00;100889.38;5070795;28;20052;-30
2022/02/15 09:52:23;;;;;;;13.13;2.55;;;;;;;9.47;100.00;100903.97;5073343;28;20056;-31
2022/02/15 09:54:55;;;;;;;14.52;2.55;;;;;;;9.65;100.00;100895.72;5074068;28;20055;-31
2022/02/15 09:57:24;;;;;;;9.50;1.70;;;;;;;9.65;100.00;100897.69;5073400;28;20045;-31
2022/02/15 09:59:53;;;;;;;12.63;1.70;;;;;;;9.77;100.00;100887.00;5073958;28;20055;-31
2022/02/15 10:02:24;;;;;;;11.70;2.03;;;;;;;9.83;100.00;100882.19;5072802;28;20048;-30
2022/02/15 10:04:52;;;;;;;12.10;2.05;;;;;;;9.93;100.00;100865.38;5073425;28;20490;-33
2022/02/15 10:07:20;;;;;;;14.10;1.92;;;;;;;9.92;100.00;100875.69;5073576;28;20048;-31
2022/02/15 10:09:49;;;;;;;10.98;1.75;;;;;;;9.89;100.00;100867.91;5071612;28;20532;-32
2022/02/15 10:12:20;;;;;;;15.10;2.08;;;;;;;9.93;100.00;100877.34;5071878;28;20416;-31
2022/02/15 10:14:52;;;;;;;10.90;2.13;;;;;;;10.02;100.00;100858.84;5073321;28;20521;-31
2022/02/15 10:17:23;;;;;;;11.02;1.85;;;;;;;10.12;100.00;100859.88;5072501;28;20071;-33
2022/02/15 10:19:52;;;;;;;15.75;2.40;;;;;;;10.14;100.00;100847.28;5073366;28;20043;-33
2022/02/15 10:22:40;;;;;;;12.65;2.00;;;;;;;10.13;99.20;100842.00;5066668;28;20040;-31
2022/02/15 10:25:08;;;;;;;11.88;2.10;;;;;;;10.20;99.44;100846.09;5072456;28;20039;-32
2022/02/15 10:27:38;;;;;;;9.93;1.55;;;;;;;10.03;97.88;100842.94;5072844;28;20055;-30
2022/02/15 10:30:06;;;;;;;10.70;2.13;;;;;;;9.83;97.90;100846.78;5072976;28;20070;-31
2022/02/15 10:32:34;;;;;;;10.05;1.83;;;;;;;9.56;97.80;100854.88;5073037;28;20062;-30
2022/02/15 10:35:02;;;;;;;8.90;1.75;;;;;;;9.25;98.68;100843.16;5072952;28;20049;-31
2022/02/15 10:37:32;;;;;;;10.77;1.90;;;;;;;9.05;100.00;100846.91;5072135;28;20557;-30
2022/02/15 10:40:02;;;;;;;10.23;1.70;;;;;;;8.82;100.00;100844.84;5072675;28;20498;-31
2022/02/15 10:42:32;;;;;;;9.07;1.80;;;;;;;8.66;100.00;100840.50;5072979;28;20485;-30
2022/02/15 10:45:02;;;;;;;10.13;1.85;;;;;;;8.63;100.00;100850.25;5072188;28;20123;-30
2022/02/15 10:47:32;;;;;;;13.52;2.05;;;;;;;8.78;100.00;100860.47;5072870;28;20052;-30
2022/02/15 10:50:01;;;;;;;12.48;2.17;;;;;;;8.99;100.00;100867.56;5072543;28;20053;-30
2022/02/15 10:52:30;;;;;;;12.43;2.30;;;;;;;9.19;100.00;100872.97;5071853;28;20048;-30
2022/02/15 10:54:58;;;;;;;10.57;1.73;;;;;;;9.32;100.00;100861.19;5072594;28;20056;-32
2022/02/15 10:57:26;;;;;;;12.27;1.75;;;;;;;9.53;100.00;100855.44;5072829;28;20065;-30
2022/02/15 10:59:55;;;;;;;11.52;2.17;;;;;;;9.60;100.00;100864.28;5068279;28;20054;-30
2022/02/15 11:02:27;;;;;;;12.77;1.90;;;;;;;9.49;100.00;100849.63;5072380;28;20469;-31
2022/02/15 11:04:56;;;;;;;12.65;2.05;;;;;;;9.58;100.00;100861.81;5072400;28;20079;-32
2022/02/15 11:07:26;;;;;;;11.23;1.77;;;;;;;9.52;100.00;100859.34;5072004;28;20328;-38
2022/02/15 11:10:06;;;;;;;11.10;1.45;;;;;;;9.60;100.00;100850.34;5072340;28;20083;-31
2022/02/15 11:12:43;;;;;;;15.68;2.20;;;;;;;9.62;100.00;100846.16;5071894;28;20045;-31
2022/02/15 11:15:12;;;;;;;12.73;1.90;;;;;;;9.60;99.68;100853.13;5072056;28;20052;-32
2022/02/15 11:17:48;;;;;;;14.52;2.00;;;;;;;9.52;100.00;100848.22;5072231;28;20055;-31
2022/02/15 11:20:19;;;;;;;12.95;2.08;;;;;;;9.52;100.00;100843.47;5071290;28;20056;-31
2022/02/15 11:22:48;;;;;;;11.20;1.90;;;;;;;9.40;100.00;100837.44;5072416;28;20131;-31
2022/02/15 11:25:16;;;;;;;8.55;1.48;;;;;;;9.13;100.00;100818.47;5071931;28;20443;-31
2022/02/15 11:27:51;;;;;;;13.02;2.10;;;;;;;8.98;100.00;100821.38;5071293;28;20044;-30
2022/02/15 11:30:20;;;;;;;14.43;2.05;;;;;;;8.78;100.00;100822.34;5071597;28;20060;-30
2022/02/15 11:32:54;;;;;;;13.55;2.13;;;;;;;8.70;100.00;100813.78;5072053;28;20059;-32
2022/02/15 11:35:21;;;;;;;11.10;2.10;;;;;;;8.68;100.00;100816.00;5071179;28;20045;-30
2022/02/15 11:37:51;;;;;;;10.25;2.03;;;;;;;8.66;100.00;100796.00;5071794;28;20056;-31